Time;durP1;ratioP1;P1;durP2;ratioP2;P2;SDS_P1;SDS_P2;PMS_P1;PMS_P2;Temp;Humidity;BMP_temperature;BMP_pressure;BME280_temperature;BME280_humidity;BME280_pressure;Samples;Min_cycle;Max_cycle;Signal;HPM_P1;HPM_P2
2021/07/10 00:02:10;;;;;;;1.50;1.00;;;18.30;98.20;;;;;;5008034;28;20456;-79
2021/07/10 00:04:37;;;;;;;1.50;0.90;;;18.30;98.20;;;;;;5010916;28;20559;-80
2021/07/10 00:07:05;;;;;;;1.50;1.00;;;18.20;98.20;;;;;;5011895;28;20460;-80
2021/07/10 00:09:32;;;;;;;1.50;1.00;;;18.20;98.20;;;;;;5011133;28;20487;-80
2021/07/10 00:11:59;;;;;;;1.50;1.00;;;18.10;98.20;;;;;;5012226;28;20952;-78
2021/07/10 00:14:26;;;;;;;1.53;1.00;;;18.10;98.20;;;;;;5012056;28;20546;-78
2021/07/10 00:16:55;;;;;;;1.50;1.00;;;18.10;98.20;;;;;;5011425;28;20880;-78
2021/07/10 00:19:22;;;;;;;1.50;0.90;;;18.00;98.20;;;;;;5011346;28;20721;-78
2021/07/10 00:21:49;;;;;;;1.50;1.00;;;18.00;98.20;;;;;;5011731;28;20464;-78
2021/07/10 00:24:16;;;;;;;1.50;1.00;;;18.00;98.20;;;;;;5010642;28;20491;-78
2021/07/10 00:26:42;;;;;;;1.53;1.00;;;17.90;98.20;;;;;;5011894;28;20471;-78
2021/07/10 00:29:09;;;;;;;1.50;0.97;;;17.90;98.20;;;;;;5011521;28;20492;-78
2021/07/10 00:31:36;;;;;;;1.50;0.90;;;17.90;98.20;;;;;;5011163;28;20576;-78
2021/07/10 00:34:04;;;;;;;1.50;0.93;;;17.80;98.20;;;;;;5006443;28;20508;-78
2021/07/10 00:36:31;;;;;;;1.50;0.93;;;17.80;98.20;;;;;;5011914;28;20495;-78
2021/07/10 00:38:58;;;;;;;1.50;0.97;;;17.80;98.20;;;;;;5012364;28;20470;-78
2021/07/10 00:41:25;;;;;;;1.50;1.00;;;17.70;98.20;;;;;;5010289;28;20475;-78
2021/07/10 00:43:53;;;;;;;1.50;0.90;;;17.70;98.20;;;;;;5010279;28;20461;-78
2021/07/10 00:46:20;;;;;;;1.50;1.00;;;17.70;98.20;;;;;;5011145;28;20488;-78
2021/07/10 00:48:47;;;;;;;1.50;1.00;;;17.60;98.20;;;;;;5010388;28;20522;-78
2021/07/10 00:51:16;;;;;;;1.50;1.00;;;17.60;98.20;;;;;;5009733;28;20530;-79
2021/07/10 00:53:43;;;;;;;1.50;1.07;;;17.60;98.20;;;;;;5011031;28;20480;-78
2021/07/10 00:56:10;;;;;;;1.50;1.00;;;17.50;98.20;;;;;;5009931;28;20488;-78
2021/07/10 00:58:37;;;;;;;1.50;0.90;;;17.50;98.20;;;;;;5011075;28;20471;-78
2021/07/10 01:01:05;;;;;;;1.50;0.90;;;17.50;98.20;;;;;;5008815;28;20472;-78
2021/07/10 01:03:34;;;;;;;1.50;0.90;;;17.40;98.20;;;;;;5009984;28;20499;-79
2021/07/10 01:06:02;;;;;;;1.50;1.00;;;17.40;98.20;;;;;;5007041;28;20476;-78
2021/07/10 01:08:31;;;;;;;1.53;1.00;;;17.40;98.20;;;;;;5010119;28;20470;-78
2021/07/10 01:10:59;;;;;;;1.50;1.00;;;17.40;98.20;;;;;;5009106;28;20499;-79
2021/07/10 01:13:26;;;;;;;1.50;0.90;;;17.30;98.20;;;;;;5008988;28;20480;-79
2021/07/10 01:15:53;;;;;;;1.50;1.00;;;17.30;98.20;;;;;;5010016;28;20487;-78
2021/07/10 01:18:20;;;;;;;1.50;0.97;;;17.30;98.20;;;;;;5005419;28;20460;-78
2021/07/10 01:20:49;;;;;;;1.50;1.00;;;17.30;98.20;;;;;;5010397;28;20487;-78
2021/07/10 01:23:16;;;;;;;1.50;0.90;;;17.20;98.20;;;;;;5011307;28;20452;-78
2021/07/10 01:25:44;;;;;;;1.50;1.00;;;17.20;98.20;;;;;;5010765;28;20492;-78
2021/07/10 01:28:13;;;;;;;1.50;1.00;;;17.20;98.20;;;;;;5009911;28;20498;-78
2021/07/10 01:30:41;;;;;;;1.50;0.97;;;17.10;98.20;;;;;;5007755;28;20495;-78
2021/07/10 01:33:08;;;;;;;1.50;1.00;;;17.10;98.20;;;;;;5010478;28;20491;-78
2021/07/10 01:35:35;;;;;;;1.53;1.00;;;17.10;98.20;;;;;;5008864;28;20492;-78
2021/07/10 01:38:06;;;;;;;1.50;0.90;;;17.10;98.20;;;;;;5009339;28;20460;-78
2021/07/10 01:40:34;;;;;;;1.50;1.00;;;17.10;98.20;;;;;;5009612;28;20554;-78
2021/07/10 01:43:03;;;;;;;1.50;1.00;;;17.10;98.20;;;;;;5005436;28;21076;-78
2021/07/10 01:45:31;;;;;;;1.50;1.00;;;17.10;98.20;;;;;;5008765;28;20491;-78
2021/07/10 01:47:58;;;;;;;1.50;1.00;;;17.10;98.20;;;;;;5009577;28;20456;-78
2021/07/10 01:50:25;;;;;;;1.50;0.97;;;17.10;98.20;;;;;;4998917;28;20471;-78
2021/07/10 01:52:52;;;;;;;1.50;1.00;;;17.00;98.20;;;;;;5000920;28;20460;-78
2021/07/10 01:55:21;;;;;;;1.53;1.00;;;17.00;98.20;;;;;;5010664;28;20776;-78
2021/07/10 01:57:49;;;;;;;1.50;0.90;;;17.00;98.20;;;;;;5014853;28;20467;-78
2021/07/10 02:00:20;;;;;;;1.50;1.00;;;16.90;98.20;;;;;;5012667;28;20485;-78
2021/07/10 02:02:49;;;;;;;1.50;1.00;;;16.90;98.20;;;;;;5015298;28;20527;-78
2021/07/10 02:05:19;;;;;;;1.50;1.00;;;16.90;98.20;;;;;;5011172;28;20487;-78
2021/07/10 02:07:46;;;;;;;1.50;1.00;;;16.90;98.20;;;;;;5014871;28;20474;-78
2021/07/10 02:10:14;;;;;;;1.50;1.00;;;16.90;98.20;;;;;;5014095;28;21199;-78
2021/07/10 02:12:43;;;;;;;1.50;0.93;;;16.80;98.20;;;;;;5014722;28;20472;-78
2021/07/10 02:15:12;;;;;;;1.53;1.00;;;16.80;98.20;;;;;;5012588;28;20498;-78
2021/07/10 02:17:41;;;;;;;1.50;1.00;;;16.80;98.20;;;;;;5013082;28;20483;-78
2021/07/10 02:20:09;;;;;;;1.53;1.00;;;16.80;98.20;;;;;;5016341;28;20510;-78
2021/07/10 02:22:36;;;;;;;1.50;0.90;;;16.80;98.20;;;;;;5012178;28;20464;-78
2021/07/10 02:25:05;;;;;;;1.50;0.97;;;16.80;98.20;;;;;;5016049;28;20486;-78
2021/07/10 02:27:32;;;;;;;1.50;0.97;;;16.80;98.20;;;;;;5011931;28;20506;-78
2021/07/10 02:30:00;;;;;;;1.50;0.90;;;16.80;98.20;;;;;;5011653;28;20467;-78
2021/07/10 02:32:27;;;;;;;1.50;1.00;;;16.80;98.20;;;;;;5015309;28;20464;-78
2021/07/10 02:34:54;;;;;;;1.50;0.90;;;16.70;98.20;;;;;;5012170;28;20476;-78
2021/07/10 02:37:21;;;;;;;1.50;0.90;;;16.70;98.20;;;;;;5014812;28;20468;-78
2021/07/10 02:39:47;;;;;;;1.50;1.00;;;16.70;98.20;;;;;;5015347;28;20464;-78
2021/07/10 02:42:14;;;;;;;1.50;0.93;;;16.70;98.20;;;;;;5015778;28;20464;-78
2021/07/10 02:44:41;;;;;;;1.50;1.00;;;16.60;98.20;;;;;;5016134;28;20496;-78
2021/07/10 02:47:09;;;;;;;1.50;1.00;;;16.60;98.20;;;;;;5011470;28;20516;-78
2021/07/10 02:49:36;;;;;;;1.50;1.00;;;16.60;98.20;;;;;;5014087;28;20556;-78
2021/07/10 02:52:07;;;;;;;1.50;1.00;;;16.60;98.20;;;;;;5015778;28;20466;-78
2021/07/10 02:54:34;;;;;;;1.50;1.00;;;16.50;98.20;;;;;;5015511;28;20480;-78
2021/07/10 02:57:01;;;;;;;1.50;1.00;;;16.50;98.20;;;;;;5013611;28;20475;-78
2021/07/10 02:59:28;;;;;;;1.50;1.00;;;16.50;98.20;;;;;;5015254;28;20467;-78
2021/07/10 03:01:55;;;;;;;1.50;0.97;;;16.50;98.20;;;;;;5016080;28;20843;-78
2021/07/10 03:04:23;;;;;;;1.50;1.00;;;16.50;98.20;;;;;;5014163;28;20904;-79
2021/07/10 03:06:50;;;;;;;1.50;1.00;;;16.50;98.20;;;;;;5014964;28;20464;-78
2021/07/10 03:09:17;;;;;;;1.53;1.00;;;16.50;98.20;;;;;;5011866;28;20958;-78
2021/07/10 03:11:44;;;;;;;1.60;1.00;;;16.40;98.20;;;;;;5010898;28;20468;-78
2021/07/10 03:14:11;;;;;;;1.50;0.90;;;16.40;98.20;;;;;;5013758;28;20460;-78
2021/07/10 03:16:37;;;;;;;1.50;0.90;;;16.40;98.20;;;;;;5013901;28;20475;-78
2021/07/10 03:19:04;;;;;;;1.50;1.00;;;16.40;98.20;;;;;;5011214;28;20460;-78
2021/07/10 03:21:33;;;;;;;1.50;1.00;;;16.40;98.20;;;;;;5011477;28;20466;-78
2021/07/10 03:23:59;;;;;;;1.50;1.00;;;16.40;98.20;;;;;;5009317;28;20487;-78
2021/07/10 03:26:26;;;;;;;1.50;1.00;;;16.40;98.20;;;;;;5005245;28;20956;-78
2021/07/10 03:28:53;;;;;;;1.83;1.20;;;16.40;98.20;;;;;;4998973;28;20464;-78
2021/07/10 03:31:20;;;;;;;1.50;0.90;;;16.40;98.20;;;;;;5009599;28;20480;-78
2021/07/10 03:33:47;;;;;;;1.50;1.00;;;16.40;98.20;;;;;;5012483;28;20471;-78
2021/07/10 03:36:14;;;;;;;1.50;1.00;;;16.30;98.20;;;;;;5011912;28;20837;-79
2021/07/10 03:38:44;;;;;;;1.50;0.97;;;16.30;98.20;;;;;;5009716;28;21107;-78
2021/07/10 03:41:11;;;;;;;1.50;1.00;;;16.30;98.20;;;;;;5004903;28;20653;-79
2021/07/10 03:43:39;;;;;;;1.50;1.00;;;16.30;98.20;;;;;;5012266;28;20949;-79
2021/07/10 03:46:06;;;;;;;1.53;1.10;;;16.30;98.20;;;;;;5014175;28;20476;-79
2021/07/10 03:48:33;;;;;;;1.53;1.00;;;16.30;98.20;;;;;;5010701;28;20472;-78
2021/07/10 03:51:00;;;;;;;1.57;1.00;;;16.30;98.20;;;;;;5007231;28;20975;-79
2021/07/10 03:53:27;;;;;;;1.50;1.00;;;16.30;98.20;;;;;;5002789;28;20469;-78
2021/07/10 03:55:55;;;;;;;1.57;1.00;;;16.30;98.20;;;;;;5011703;28;20480;-78
2021/07/10 03:58:22;;;;;;;1.50;1.00;;;16.30;98.20;;;;;;5009542;28;20559;-78
2021/07/10 04:00:49;;;;;;;1.50;1.00;;;16.30;98.20;;;;;;5008703;28;20475;-79
2021/07/10 04:03:16;;;;;;;1.50;1.00;;;16.30;98.20;;;;;;4996951;28;20468;-78
2021/07/10 04:05:43;;;;;;;1.60;1.00;;;16.40;98.20;;;;;;5010307;28;21026;-79
2021/07/10 04:08:10;;;;;;;1.50;1.00;;;16.40;98.20;;;;;;5012574;28;20471;-79
2021/07/10 04:10:37;;;;;;;1.50;1.00;;;16.40;98.20;;;;;;5013128;28;20468;-79
2021/07/10 04:13:10;;;;;;;1.50;1.00;;;16.40;98.20;;;;;;5013580;28;20464;-79
2021/07/10 04:15:37;;;;;;;1.50;1.00;;;16.40;98.20;;;;;;5013529;28;20867;-79
2021/07/10 04:18:04;;;;;;;1.53;1.00;;;16.50;98.20;;;;;;5013609;28;20955;-79
2021/07/10 04:20:31;;;;;;;1.50;1.00;;;16.50;98.20;;;;;;5012700;28;20464;-79
2021/07/10 04:22:58;;;;;;;1.50;1.00;;;16.50;98.20;;;;;;5011643;28;20472;-79
2021/07/10 04:25:25;;;;;;;1.50;0.90;;;16.60;98.20;;;;;;5012194;28;20484;-79
2021/07/10 04:27:53;;;;;;;1.50;1.00;;;16.60;98.20;;;;;;5013441;28;20471;-79
2021/07/10 04:30:21;;;;;;;1.50;0.93;;;16.70;98.20;;;;;;5012674;28;20526;-79
2021/07/10 04:32:49;;;;;;;1.50;0.90;;;16.70;98.20;;;;;;5011079;28;20479;-79
2021/07/10 04:35:17;;;;;;;1.53;1.00;;;16.80;98.20;;;;;;5013548;28;20476;-80
2021/07/10 04:37:44;;;;;;;1.50;1.00;;;16.90;98.20;;;;;;5019436;28;20467;-81
2021/07/10 04:40:12;;;;;;;1.50;1.00;;;17.00;98.20;;;;;;5020059;28;20457;-80
2021/07/10 04:42:40;;;;;;;1.50;0.90;;;17.00;98.20;;;;;;5016460;28;20476;-80
2021/07/10 04:45:08;;;;;;;1.50;1.00;;;17.10;98.20;;;;;;5018073;28;20488;-81
2021/07/10 04:47:37;;;;;;;1.50;1.00;;;17.30;98.20;;;;;;5019717;28;20456;-82
2021/07/10 04:50:08;;;;;;;1.50;0.90;;;17.40;98.20;;;;;;5017843;28;20496;-82
2021/07/10 04:52:40;;;;;;;1.50;1.00;;;17.50;98.20;;;;;;5017597;28;20464;-80
2021/07/10 04:55:10;;;;;;;1.50;0.90;;;17.60;98.20;;;;;;5017525;28;20480;-81
2021/07/10 04:57:37;;;;;;;1.50;0.90;;;17.70;98.20;;;;;;5018690;28;20500;-81
2021/07/10 05:00:06;;;;;;;1.50;1.00;;;17.80;98.20;;;;;;5015219;28;20472;-82
2021/07/10 05:02:37;;;;;;;1.50;0.90;;;18.00;98.20;;;;;;5017708;28;20465;-81
2021/07/10 05:05:05;;;;;;;1.50;1.00;;;18.20;98.20;;;;;;5009873;28;20519;-81
2021/07/10 05:07:32;;;;;;;1.50;1.00;;;18.30;98.20;;;;;;5014989;28;20487;-81
2021/07/10 05:09:59;;;;;;;1.50;0.90;;;18.40;98.20;;;;;;5015324;28;20460;-81
2021/07/10 05:12:26;;;;;;;1.53;1.10;;;18.40;98.20;;;;;;5013855;28;20523;-80
2021/07/10 05:14:54;;;;;;;1.50;1.00;;;18.50;98.20;;;;;;5014937;28;20503;-81
2021/07/10 05:17:22;;;;;;;1.50;1.00;;;18.50;98.20;;;;;;5017020;28;20460;-81
2021/07/10 05:19:51;;;;;;;1.50;0.97;;;18.50;98.20;;;;;;5015013;28;20464;-82
2021/07/10 05:22:19;;;;;;;1.50;0.90;;;18.50;98.20;;;;;;5016564;28;20465;-81
2021/07/10 05:24:46;;;;;;;1.50;1.00;;;18.50;98.20;;;;;;5005982;28;20980;-81
2021/07/10 05:27:13;;;;;;;1.50;0.90;;;18.50;98.20;;;;;;5011035;28;20952;-81
2021/07/10 05:29:40;;;;;;;1.50;1.00;;;18.60;98.20;;;;;;5010108;28;20536;-83
2021/07/10 05:32:08;;;;;;;1.50;1.00;;;18.60;98.20;;;;;;5016440;28;20471;-82
2021/07/10 05:34:34;;;;;;;1.50;1.00;;;18.60;98.20;;;;;;5013571;28;20481;-81
2021/07/10 05:37:03;;;;;;;1.50;1.00;;;18.60;98.20;;;;;;5008774;28;20472;-79
2021/07/10 05:39:30;;;;;;;1.50;0.90;;;18.50;98.20;;;;;;5014315;28;20460;-82
2021/07/10 05:41:57;;;;;;;1.50;1.00;;;18.60;98.20;;;;;;5012414;28;20464;-83
2021/07/10 05:44:28;;;;;;;1.50;0.90;;;18.60;98.20;;;;;;5013923;28;21076;-82
2021/07/10 05:47:00;;;;;;;1.50;0.90;;;18.60;98.20;;;;;;5015706;28;20459;-81
2021/07/10 05:49:27;;;;;;;1.50;0.90;;;18.60;98.20;;;;;;5015700;28;20543;-81
2021/07/10 05:51:54;;;;;;;1.50;0.90;;;18.70;98.20;;;;;;5005969;28;20925;-81
2021/07/10 05:54:23;;;;;;;1.50;0.90;;;18.80;98.20;;;;;;5009662;28;20503;-82
2021/07/10 05:59:42;;;;;;;1.50;0.97;;;18.90;98.20;;;;;;5014284;28;20909;-80
2021/07/10 06:02:22;;;;;;;;;;;;;;;;;;;;;
2021/07/10 06:05:06;;;;;;;1.50;0.93;;;19.10;98.20;;;;;;5011574;28;20587;-82
2021/07/10 06:07:33;;;;;;;1.57;1.00;;;19.10;98.20;;;;;;5013781;28;20456;-82
2021/07/10 06:12:53;;;;;;;1.50;0.90;;;19.20;98.20;;;;;;5006905;28;20464;-82
2021/07/10 06:15:21;;;;;;;1.57;1.07;;;19.30;98.20;;;;;;5014952;28;20503;-84
2021/07/10 06:17:48;;;;;;;1.50;0.90;;;19.30;98.20;;;;;;5017333;28;20499;-83
2021/07/10 06:20:17;;;;;;;1.50;0.90;;;19.40;98.20;;;;;;5012953;28;20452;-81
2021/07/10 06:22:51;;;;;;;1.50;0.90;;;19.60;98.20;;;;;;5013965;28;20531;-79
2021/07/10 06:25:40;;;;;;;1.50;0.90;;;19.60;98.20;;;;;;5012486;28;20485;-79
2021/07/10 06:28:10;;;;;;;1.50;1.00;;;19.70;98.20;;;;;;5011604;28;20968;-81
2021/07/10 06:30:46;;;;;;;1.50;0.90;;;19.80;98.20;;;;;;5010291;28;20466;-82
2021/07/10 06:33:21;;;;;;;1.50;0.90;;;19.90;98.20;;;;;;5011460;28;20494;-81
2021/07/10 06:35:54;;;;;;;1.50;1.00;;;20.00;98.20;;;;;;5011377;28;20898;-82
2021/07/10 06:38:21;;;;;;;1.53;0.90;;;20.10;98.20;;;;;;5009083;28;20475;-80
2021/07/10 06:40:57;;;;;;;1.50;0.90;;;20.30;98.20;;;;;;5010838;28;20476;-80
2021/07/10 06:43:24;;;;;;;1.50;0.90;;;20.40;98.20;;;;;;5014313;28;20813;-80
2021/07/10 06:45:51;;;;;;;1.50;0.90;;;20.50;98.20;;;;;;5014533;28;20484;-79
2021/07/10 06:48:18;;;;;;;1.50;0.90;;;20.60;98.20;;;;;;5014431;28;20543;-79
2021/07/10 06:50:45;;;;;;;1.50;0.93;;;20.70;98.20;;;;;;5012593;28;20472;-80
2021/07/10 06:53:12;;;;;;;1.50;0.90;;;20.70;98.20;;;;;;5013683;28;20551;-82
2021/07/10 06:55:40;;;;;;;1.50;0.90;;;20.80;98.20;;;;;;5012392;28;20495;-83
2021/07/10 06:58:08;;;;;;;1.50;0.90;;;20.90;98.20;;;;;;5015160;28;20518;-81
2021/07/10 07:00:35;;;;;;;1.50;0.90;;;21.00;98.20;;;;;;5014322;28;20476;-81
2021/07/10 07:03:02;;;;;;;1.50;0.90;;;21.10;98.20;;;;;;5018950;28;20543;-81
2021/07/10 07:05:30;;;;;;;1.50;0.90;;;21.10;98.20;;;;;;5013310;28;21033;-81
2021/07/10 07:07:57;;;;;;;1.50;0.90;;;21.20;98.20;;;;;;5009774;28;20543;-80
2021/07/10 07:10:29;;;;;;;1.50;0.90;;;21.30;98.20;;;;;;5013913;28;20464;-79
2021/07/10 07:12:56;;;;;;;1.50;0.90;;;21.30;97.30;;;;;;5015523;28;20685;-80
2021/07/10 07:15:25;;;;;;;1.53;0.90;;;21.50;96.90;;;;;;5013445;28;20555;-80
2021/07/10 07:17:52;;;;;;;1.50;0.90;;;21.70;97.10;;;;;;5015126;28;20467;-79
2021/07/10 07:20:19;;;;;;;1.50;0.90;;;21.80;96.50;;;;;;5013900;28;20459;-80
2021/07/10 07:22:54;;;;;;;1.50;0.90;;;21.90;96.20;;;;;;5011832;28;20483;-80
2021/07/10 07:25:22;;;;;;;2.10;1.40;;;22.10;95.90;;;;;;5013642;28;20476;-80
2021/07/10 07:27:51;;;;;;;1.50;0.90;;;22.20;95.80;;;;;;5002297;28;20471;-78
2021/07/10 07:30:18;;;;;;;1.53;0.90;;;22.40;94.70;;;;;;5009181;28;21030;-79
2021/07/10 07:32:47;;;;;;;1.50;0.90;;;22.50;94.20;;;;;;5008110;28;20456;-80
2021/07/10 07:35:16;;;;;;;1.50;0.90;;;22.70;94.60;;;;;;5009470;28;20488;-79
2021/07/10 07:37:43;;;;;;;1.50;0.90;;;22.90;92.80;;;;;;5014738;28;20460;-79
2021/07/10 07:40:12;;;;;;;1.50;0.90;;;23.10;92.10;;;;;;5012683;28;20514;-79
2021/07/10 07:42:40;;;;;;;1.50;0.90;;;23.40;92.10;;;;;;5011498;28;20481;-80
2021/07/10 07:45:08;;;;;;;1.50;0.90;;;23.50;91.00;;;;;;5013510;28;20481;-80
2021/07/10 07:47:36;;;;;;;1.50;0.90;;;23.80;91.40;;;;;;5011835;28;20552;-79
2021/07/10 07:50:05;;;;;;;1.53;0.90;;;24.00;89.70;;;;;;5012391;28;20464;-81
2021/07/10 07:52:32;;;;;;;1.50;0.90;;;24.30;89.80;;;;;;5013698;28;20465;-79
2021/07/10 07:54:59;;;;;;;1.53;0.90;;;24.40;88.80;;;;;;5015747;28;20579;-80
2021/07/10 07:57:26;;;;;;;1.53;0.90;;;24.50;86.30;;;;;;5015006;28;20479;-81
2021/07/10 07:59:53;;;;;;;1.50;0.90;;;24.50;86.80;;;;;;5012808;28;20559;-80
2021/07/10 08:02:22;;;;;;;1.50;0.90;;;24.60;86.20;;;;;;5012261;28;20452;-81
2021/07/10 08:04:53;;;;;;;1.50;0.90;;;24.60;85.40;;;;;;5007457;28;21023;-81
2021/07/10 08:07:21;;;;;;;1.50;0.90;;;24.70;85.30;;;;;;5012900;28;20456;-79
2021/07/10 08:09:48;;;;;;;1.50;0.90;;;24.80;85.50;;;;;;5012537;28;20468;-80
2021/07/10 08:12:28;;;;;;;1.50;0.80;;;24.90;85.40;;;;;;5013192;28;20460;-80
2021/07/10 08:15:04;;;;;;;1.50;0.80;;;25.00;83.20;;;;;;5012022;28;20488;-79
2021/07/10 08:17:32;;;;;;;1.50;0.90;;;25.10;85.50;;;;;;5011224;28;20468;-79
2021/07/10 08:20:00;;;;;;;1.50;0.90;;;25.20;85.30;;;;;;5003416;28;20476;-82
2021/07/10 08:22:28;;;;;;;1.50;0.90;;;25.20;84.70;;;;;;5009365;28;20479;-84
2021/07/10 08:24:56;;;;;;;1.50;0.90;;;25.40;83.80;;;;;;5004313;28;20539;-81
2021/07/10 08:27:23;;;;;;;1.50;0.80;;;25.40;83.70;;;;;;5010334;28;20985;-80
2021/07/10 08:29:50;;;;;;;1.50;0.87;;;25.50;82.50;;;;;;5011700;28;20498;-82
2021/07/10 08:32:17;;;;;;;1.50;0.80;;;25.60;82.90;;;;;;5012257;28;20555;-82
2021/07/10 08:34:44;;;;;;;1.50;0.90;;;25.60;82.60;;;;;;5011170;28;20483;-82
2021/07/10 08:37:11;;;;;;;1.50;0.90;;;25.60;83.10;;;;;;5011163;28;20460;-82
2021/07/10 08:39:40;;;;;;;1.50;0.90;;;25.70;83.10;;;;;;5012966;28;20565;-83
2021/07/10 08:42:10;;;;;;;1.50;0.83;;;25.70;82.20;;;;;;5012196;28;20981;-81
2021/07/10 08:44:41;;;;;;;1.50;0.83;;;25.70;80.40;;;;;;5013222;28;20472;-82
2021/07/10 08:47:11;;;;;;;1.50;0.90;;;25.80;80.90;;;;;;5009075;28;20464;-82
2021/07/10 08:49:39;;;;;;;1.50;0.87;;;25.80;81.90;;;;;;5011006;28;20824;-80
2021/07/10 08:52:06;;;;;;;1.50;0.90;;;25.90;82.10;;;;;;5010284;28;20460;-81
2021/07/10 08:54:34;;;;;;;1.50;0.90;;;25.90;81.50;;;;;;5005293;28;20658;-80
2021/07/10 08:57:03;;;;;;;1.50;0.90;;;25.90;80.80;;;;;;5011310;28;20578;-83
2021/07/10 08:59:30;;;;;;;1.50;0.80;;;26.00;80.10;;;;;;5007119;28;20472;-82
2021/07/10 09:01:58;;;;;;;1.50;0.90;;;26.00;80.40;;;;;;5004462;28;20472;-83
2021/07/10 09:04:25;;;;;;;1.50;0.80;;;26.00;80.50;;;;;;5000756;28;20483;-84
2021/07/10 09:06:53;;;;;;;1.50;0.90;;;26.00;80.00;;;;;;5008947;28;21028;-84
2021/07/10 09:09:20;;;;;;;1.50;0.80;;;26.10;81.30;;;;;;5009019;28;20579;-86
2021/07/10 09:12:00;;;;;;;1.50;0.87;;;26.10;80.00;;;;;;5007801;28;20473;-84
2021/07/10 09:14:32;;;;;;;1.50;0.80;;;26.10;80.20;;;;;;5003484;28;20577;-84
2021/07/10 09:17:15;;;;;;;1.50;0.80;;;26.10;79.60;;;;;;4998058;28;20496;-84
2021/07/10 09:19:42;;;;;;;1.50;0.80;;;26.10;80.00;;;;;;5006373;28;20464;-85
2021/07/10 09:22:09;;;;;;;1.50;0.90;;;26.10;81.10;;;;;;5008557;28;20524;-86
2021/07/10 09:24:38;;;;;;;1.50;0.90;;;26.00;82.10;;;;;;5004230;28;21006;-81
2021/07/10 09:27:07;;;;;;;1.43;0.90;;;26.00;81.40;;;;;;5007333;28;20460;-82
2021/07/10 09:29:40;;;;;;;1.50;0.80;;;26.10;82.80;;;;;;5002975;28;20560;-85
2021/07/10 09:32:08;;;;;;;1.50;0.90;;;26.00;83.40;;;;;;5002629;28;20462;-83
2021/07/10 09:34:39;;;;;;;1.47;0.80;;;26.10;82.50;;;;;;5007200;28;21033;-81
2021/07/10 09:37:15;;;;;;;1.50;0.90;;;26.00;82.60;;;;;;5001455;28;20495;-84
2021/07/10 09:39:44;;;;;;;1.47;0.90;;;26.00;82.70;;;;;;5009051;28;20986;-83
2021/07/10 09:42:20;;;;;;;1.47;0.80;;;25.70;83.50;;;;;;5010375;28;20468;-84
2021/07/10 09:44:55;;;;;;;1.50;0.90;;;25.60;82.80;;;;;;5007922;28;20494;-82
2021/07/10 09:47:28;;;;;;;1.47;0.80;;;25.60;83.40;;;;;;5000085;28;20468;-81
2021/07/10 09:49:56;;;;;;;1.50;0.87;;;25.60;82.90;;;;;;5008818;28;20961;-82
2021/07/10 09:52:29;;;;;;;1.43;0.80;;;25.50;82.40;;;;;;5005764;28;20456;-83
2021/07/10 09:55:02;;;;;;;1.47;0.90;;;25.40;83.40;;;;;;5005413;28;20480;-83
2021/07/10 09:57:32;;;;;;;1.50;0.90;;;25.40;84.20;;;;;;5006783;28;20495;-82
2021/07/10 10:00:08;;;;;;;1.43;0.90;;;25.50;82.70;;;;;;5007578;28;20472;-84
2021/07/10 10:02:42;;;;;;;1.50;0.80;;;25.50;82.70;;;;;;5007757;28;20479;-80
2021/07/10 10:05:12;;;;;;;1.50;0.90;;;25.30;83.60;;;;;;4999436;28;21219;-80
2021/07/10 10:07:50;;;;;;;1.50;0.83;;;25.30;83.80;;;;;;5000943;28;20460;-81
2021/07/10 10:10:25;;;;;;;1.60;1.00;;;25.30;83.00;;;;;;5008667;28;20475;-81
2021/07/10 10:13:19;;;;;;;1.50;0.80;;;25.20;83.10;;;;;;5003854;28;20459;-81
2021/07/10 10:15:51;;;;;;;1.50;0.90;;;25.30;83.60;;;;;;4993689;28;20494;-81
2021/07/10 10:18:20;;;;;;;1.50;0.90;;;25.30;84.50;;;;;;5010073;28;20487;-81
2021/07/10 10:20:47;;;;;;;2.73;1.87;;;25.30;82.70;;;;;;5007520;28;20527;-80
2021/07/10 10:23:16;;;;;;;1.50;0.80;;;25.40;82.60;;;;;;5009868;28;20870;-81
2021/07/10 10:25:44;;;;;;;1.50;0.90;;;25.50;83.00;;;;;;5013590;28;20500;-79
2021/07/10 10:28:18;;;;;;;1.50;0.90;;;25.40;82.30;;;;;;5009321;28;20475;-80
2021/07/10 10:30:47;;;;;;;1.47;0.90;;;25.30;82.90;;;;;;5009662;28;20467;-82
2021/07/10 10:33:19;;;;;;;1.50;0.90;;;25.20;82.40;;;;;;5011729;28;20827;-82
2021/07/10 10:35:50;;;;;;;1.50;0.90;;;25.10;83.00;;;;;;5010717;28;20574;-81
2021/07/10 10:38:18;;;;;;;1.50;1.00;;;25.10;82.70;;;;;;5010509;28;20506;-82
2021/07/10 10:40:47;;;;;;;1.47;0.80;;;25.10;82.70;;;;;;5006359;28;20467;-82
2021/07/10 10:43:16;;;;;;;1.50;0.90;;;25.10;83.30;;;;;;5011071;28;20460;-81
2021/07/10 10:45:45;;;;;;;1.50;0.83;;;25.00;84.00;;;;;;5009625;28;20488;-81
2021/07/10 10:48:17;;;;;;;1.50;0.90;;;25.00;83.20;;;;;;5011232;28;20468;-81
2021/07/10 10:50:47;;;;;;;1.50;0.83;;;24.90;82.90;;;;;;5005893;28;20542;-81
2021/07/10 10:53:24;;;;;;;1.50;0.90;;;24.90;84.40;;;;;;5008882;28;20464;-79
2021/07/10 10:55:51;;;;;;;1.50;0.80;;;25.20;83.90;;;;;;5010225;28;20480;-81
2021/07/10 10:58:22;;;;;;;1.50;0.90;;;25.20;81.20;;;;;;5010552;28;20467;-82
2021/07/10 11:00:51;;;;;;;1.50;0.80;;;25.50;81.40;;;;;;5008037;28;20478;-82
2021/07/10 11:03:22;;;;;;;1.50;0.80;;;25.70;81.30;;;;;;5010770;28;20460;-82
2021/07/10 11:05:54;;;;;;;1.50;0.90;;;25.90;81.50;;;;;;5006399;28;20539;-82
2021/07/10 11:08:33;;;;;;;1.50;0.90;;;26.10;79.70;;;;;;5010838;28;20621;-82
2021/07/10 11:11:27;;;;;;;1.47;0.80;;;26.10;79.40;;;;;;5008114;28;20471;-80
2021/07/10 11:14:16;;;;;;;1.47;0.80;;;26.10;80.60;;;;;;5004434;28;20481;-81
2021/07/10 11:17:03;;;;;;;1.50;0.90;;;25.90;80.10;;;;;;4990934;28;20515;-82
2021/07/10 11:19:46;;;;;;;1.50;0.90;;;25.80;79.90;;;;;;5011480;28;20459;-81
2021/07/10 11:22:55;;;;;;;1.50;0.90;;;25.70;81.20;;;;;;5009422;28;20463;-80
2021/07/10 11:26:02;;;;;;;1.47;0.80;;;25.60;80.50;;;;;;5000343;28;20484;-79
2021/07/10 11:28:40;;;;;;;1.50;0.80;;;25.70;81.30;;;;;;5008976;28;20467;-81
2021/07/10 11:31:10;;;;;;;1.43;0.80;;;25.70;79.90;;;;;;5010281;28;21195;-80
2021/07/10 11:34:13;;;;;;;1.50;0.87;;;25.80;80.30;;;;;;5007391;28;20464;-81
2021/07/10 11:37:00;;;;;;;1.47;0.80;;;25.80;80.70;;;;;;4998412;28;20482;-82
2021/07/10 11:39:51;;;;;;;1.50;0.80;;;25.90;79.60;;;;;;5003706;28;20472;-82
2021/07/10 11:42:49;;;;;;;1.50;0.80;;;26.10;80.60;;;;;;5009586;28;20539;-83
2021/07/10 11:45:25;;;;;;;1.50;0.90;;;26.20;79.00;;;;;;5006930;28;20483;-83
2021/07/10 11:47:57;;;;;;;1.47;0.80;;;26.20;78.60;;;;;;5003416;28;20559;-81
2021/07/10 11:50:27;;;;;;;1.40;0.80;;;26.30;79.20;;;;;;5007037;28;20471;-81
2021/07/10 11:53:07;;;;;;;1.50;0.90;;;26.10;79.40;;;;;;5006551;28;20885;-80
2021/07/10 11:55:35;;;;;;;1.50;0.90;;;26.20;79.70;;;;;;5008028;28;20480;-81
2021/07/10 11:58:05;;;;;;;1.50;0.90;;;26.30;78.50;;;;;;5008513;28;20534;-84
2021/07/10 12:00:33;;;;;;;1.70;1.30;;;26.50;79.70;;;;;;5004777;28;21038;-81
2021/07/10 12:03:00;;;;;;;1.50;0.80;;;26.60;77.70;;;;;;5007339;28;21286;-82
2021/07/10 12:09:06;;;;;;;1.50;0.80;;;26.90;77.00;;;;;;5009308;28;21013;-83
2021/07/10 12:11:35;;;;;;;1.50;0.80;;;27.00;76.70;;;;;;5008906;28;20562;-82
2021/07/10 12:14:06;;;;;;;1.50;0.90;;;27.00;77.30;;;;;;5007294;28;20535;-81
2021/07/10 12:16:58;;;;;;;1.50;0.80;;;27.00;77.40;;;;;;5006201;28;20556;-83
2021/07/10 12:19:27;;;;;;;1.47;0.83;;;26.80;77.50;;;;;;5010331;28;21124;-81
2021/07/10 12:22:28;;;;;;;1.50;0.90;;;26.60;76.40;;;;;;5010722;28;20561;-82
2021/07/10 12:25:05;;;;;;;1.50;0.90;;;26.40;77.10;;;;;;5004462;28;20498;-80
2021/07/10 12:27:36;;;;;;;1.50;0.90;;;26.10;78.60;;;;;;5006878;28;20956;-83
2021/07/10 12:30:03;;;;;;;1.47;0.80;;;26.10;78.50;;;;;;5005883;28;20526;-79
2021/07/10 12:32:30;;;;;;;1.50;0.90;;;26.10;78.30;;;;;;5002539;28;20479;-77
2021/07/10 12:34:57;;;;;;;1.47;0.83;;;26.30;79.30;;;;;;5005616;28;20494;-81
2021/07/10 12:37:27;;;;;;;1.50;0.90;;;26.50;79.40;;;;;;5008294;28;20479;-80
2021/07/10 12:40:08;;;;;;;1.40;0.90;;;26.60;78.80;;;;;;5009215;28;20474;-82
2021/07/10 12:42:36;;;;;;;1.50;0.90;;;26.50;78.00;;;;;;5013944;28;20523;-80
2021/07/10 12:45:06;;;;;;;1.47;0.83;;;26.40;77.90;;;;;;5023217;28;20507;-79
2021/07/10 12:47:33;;;;;;;1.47;0.90;;;26.20;77.90;;;;;;5009773;28;20495;-80
2021/07/10 12:50:01;;;;;;;1.50;0.80;;;25.90;78.80;;;;;;5005653;28;20468;-82
2021/07/10 12:52:30;;;;;;;1.50;0.90;;;25.90;78.30;;;;;;5006255;28;20468;-78
2021/07/10 12:55:05;;;;;;;1.50;0.80;;;25.90;79.00;;;;;;5004055;28;20503;-83
2021/07/10 12:57:35;;;;;;;1.50;0.90;;;25.80;78.40;;;;;;5007339;28;20577;-80
2021/07/10 13:00:15;;;;;;;1.50;0.80;;;25.50;79.80;;;;;;5007454;28;20512;-81
2021/07/10 13:02:48;;;;;;;1.50;0.80;;;25.50;79.60;;;;;;5006716;28;20494;-81
2021/07/10 13:05:18;;;;;;;1.50;0.90;;;25.40;80.50;;;;;;5004134;28;20492;-82
2021/07/10 13:07:47;;;;;;;1.43;0.90;;;25.40;80.00;;;;;;5010367;28;20449;-81
2021/07/10 13:10:33;;;;;;;1.50;0.90;;;25.30;80.30;;;;;;5007288;28;20571;-80
2021/07/10 13:13:05;;;;;;;1.50;0.90;;;25.30;79.90;;;;;;4990928;28;20463;-80